Time,TemperatureF,DewpointF,PressureIn,WindDirection,WindDirectionDegrees,WindSpeedMPH,WindSpeedGustMPH,Humidity,HourlyPrecipIn,Conditions,Clouds,dailyrainin,SoftwareType,DateUTC
2013-07-14 00:00:00,68.7,67.2,30.25,SSE,167,0.0,0.0,95,0.00,,---,0.00,VWS V14.01,2013-07-14 04:00:00,
2013-07-14 00:01:00,68.7,67.2,30.25,SSE,167,0.0,0.0,95,0.00,,---,0.00,VWS V14.01,2013-07-14 04:01:00,
2013-07-14 00:02:00,68.6,67.1,30.25,SSE,167,0.0,0.0,95,0.00,,---,0.00,VWS V14.01,2013-07-14 04:02:00,
2013-07-14 00:04:00,68.6,67.1,30.25,SSE,167,0.0,0.0,95,0.00,,---,0.00,VWS V14.01,2013-07-14 04:04:00,
2013-07-14 00:05:00,68.6,67.1,30.25,SSE,167,0.0,0.0,95,0.00,,---,0.00,VWS V14.01,2013-07-14 04:05:00,
2013-07-14 00:10:00,68.5,67.3,30.25,SSE,167,0.0,0.0,96,0.00,,---,0.00,VWS V14.01,2013-07-14 04:10:00,
2013-07-14 00:15:00,68.5,67.3,30.24,SSE,167,0.0,0.0,96,0.00,,---,0.00,VWS V14.01,2013-07-14 04:15:00,
2013-07-14 00:20:00,68.4,67.2,30.24,SSE,167,0.0,0.0,96,0.00,,---,0.00,VWS V14.01,2013-07-14 04:20:00,
2013-07-14 00:25:00,68.3,67.1,30.24,SSE,167,0.0,0.0,96,0.00,,---,0.00,VWS V14.01,2013-07-14 04:25:00,
2013-07-14 00:30:00,68.2,67.0,30.24,SSE,167,0.0,0.0,96,0.00,,---,0.00,VWS V14.01,2013-07-14 04:30:00,
2013-07-14 00:35:00,68.1,66.9,30.24,SSE,167,0.0,0.0,96,0.00,,---,0.00,VWS V14.01,2013-07-14 04:35:00,
2013-07-14 00:40:00,68.1,66.9,30.24,SSE,167,0.0,0.0,96,0.00,,---,0.00,VWS V14.01,2013-07-14 04:40:00,
2013-07-14 00:45:00,68.0,66.8,30.24,SSE,167,0.0,0.0,96,0.00,,---,0.00,VWS V14.01,2013-07-14 04:45:00,
2013-07-14 00:50:00,67.9,66.7,30.24,SSE,167,0.0,0.0,96,0.00,,---,0.00,VWS V14.01,2013-07-14 04:50:00,
2013-07-14 00:55:00,67.9,66.7,30.24,SSE,167,0.0,0.0,96,0.00,,---,0.00,VWS V14.01,2013-07-14 04:55:00,
2013-07-14 01:00:00,67.8,66.6,30.24,SSE,167,0.0,0.0,96,0.00,,---,0.00,VWS V14.01,2013-07-14 05:00:00,
2013-07-14 01:05:00,67.7,66.5,30.24,SSE,167,0.0,0.0,96,0.00,,---,0.00,VWS V14.01,2013-07-14 05:05:00,
2013-07-14 01:10:00,67.7,66.5,30.24,SSE,167,0.0,0.0,96,0.00,,---,0.00,VWS V14.01,2013-07-14 05:10:00,
2013-07-14 01:15:00,67.6,66.4,30.24,SSE,167,0.0,0.0,96,0.00,,---,0.00,VWS V14.01,2013-07-14 05:15:00,
2013-07-14 01:20:00,67.7,66.5,30.24,SSE,167,0.0,0.0,96,0.00,,---,0.00,VWS V14.01,2013-07-14 05:20:00,
2013-07-14 01:25:00,67.6,66.4,30.24,SSE,167,0.0,0.0,96,0.00,,---,0.00,VWS V14.01,2013-07-14 05:25:00,
2013-07-14 01:30:00,67.6,66.4,30.24,SSE,167,0.0,0.0,96,0.00,,---,0.00,VWS V14.01,2013-07-14 05:30:00,
2013-07-14 01:35:00,67.6,66.4,30.24,SSE,167,0.0,0.0,96,0.00,,---,0.00,VWS V14.01,2013-07-14 05:35:00,
2013-07-14 01:40:00,67.8,66.9,30.24,SSE,167,0.0,0.0,97,0.00,,---,0.00,VWS V14.01,2013-07-14 05:40:00,
2013-07-14 01:45:00,67.8,66.9,30.24,SSE,167,0.0,0.0,97,0.00,,---,0.00,VWS V14.01,2013-07-14 05:45:00,
2013-07-14 01:50:00,67.8,66.9,30.24,SSE,167,0.0,0.0,97,0.00,,---,0.00,VWS V14.01,2013-07-14 05:50:00,
2013-07-14 01:55:00,67.8,66.9,30.24,SSE,167,0.0,0.0,97,0.00,,---,0.00,VWS V14.01,2013-07-14 05:55:00,
2013-07-14 01:56:00,67.8,66.9,30.24,SSE,167,0.0,0.0,97,0.00,,---,0.00,VWS V14.01,2013-07-14 05:56:00,
2013-07-14 02:00:00,67.8,66.9,30.24,SSE,167,0.0,0.0,97,0.00,,---,0.00,VWS V14.01,2013-07-14 06:00:00,
2013-07-14 02:01:00,67.8,66.9,30.24,SSE,167,0.0,0.0,97,0.00,,---,0.00,VWS V14.01,2013-07-14 06:01:00,
2013-07-14 02:05:00,67.8,66.9,30.24,SSE,167,0.0,0.0,97,0.00,,---,0.00,VWS V14.01,2013-07-14 06:05:00,
2013-07-14 02:06:00,67.7,66.8,30.24,SSE,167,0.0,0.0,97,0.00,,---,0.00,VWS V14.01,2013-07-14 06:06:00,
2013-07-14 02:10:00,67.7,66.8,30.24,SSE,167,0.0,0.0,97,0.00,,---,0.00,VWS V14.01,2013-07-14 06:10:00,
2013-07-14 02:11:00,67.7,66.8,30.24,SSE,167,0.0,0.0,97,0.00,,---,0.00,VWS V14.01,2013-07-14 06:11:00,
2013-07-14 02:15:00,67.7,66.8,30.24,SSE,167,0.0,0.0,97,0.00,,---,0.00,VWS V14.01,2013-07-14 06:15:00,
2013-07-14 02:16:00,67.7,66.8,30.24,SSE,167,0.0,0.0,97,0.00,,---,0.00,VWS V14.01,2013-07-14 06:16:00,
2013-07-14 02:20:00,67.6,66.4,30.24,SSE,167,0.0,0.0,96,0.00,,---,0.00,VWS V14.01,2013-07-14 06:20:00,
2013-07-14 02:21:00,67.6,66.4,30.24,SSE,167,0.0,0.0,96,0.00,,---,0.00,VWS V14.01,2013-07-14 06:21:00,
2013-07-14 02:25:00,67.6,66.7,30.24,SSE,167,0.0,0.0,97,0.00,,---,0.00,VWS V14.01,2013-07-14 06:25:00,
2013-07-14 02:26:00,67.6,66.7,30.24,SSE,167,0.0,0.0,97,0.00,,---,0.00,VWS V14.01,2013-07-14 06:26:00,
2013-07-14 02:30:00,67.6,66.7,30.24,SSE,167,0.0,0.0,97,0.00,,---,0.00,VWS V14.01,2013-07-14 06:30:00,
2013-07-14 02:31:00,67.5,66.6,30.24,SSE,167,0.0,0.0,97,0.00,,---,0.00,VWS V14.01,2013-07-14 06:31:00,
2013-07-14 02:35:00,67.5,66.6,30.24,SSE,167,0.0,0.0,97,0.00,,---,0.00,VWS V14.01,2013-07-14 06:35:00,
2013-07-14 02:36:00,67.6,66.7,30.24,SSE,167,0.0,0.0,97,0.00,,---,0.00,VWS V14.01,2013-07-14 06:36:00,
2013-07-14 02:40:00,67.5,66.6,30.24,SSE,167,0.0,0.0,97,0.00,,---,0.00,VWS V14.01,2013-07-14 06:40:00,
2013-07-14 02:41:00,67.6,66.7,30.24,SSE,167,0.0,0.0,97,0.00,,---,0.00,VWS V14.01,2013-07-14 06:41:00,
2013-07-14 02:45:00,67.6,66.7,30.24,SSE,167,0.0,0.0,97,0.00,,---,0.00,VWS V14.01,2013-07-14 06:45:00,
2013-07-14 02:46:00,67.5,66.6,30.24,SSE,167,0.0,0.0,97,0.00,,---,0.00,VWS V14.01,2013-07-14 06:46:00,
2013-07-14 02:50:00,67.6,66.7,30.24,SSE,167,0.0,0.0,97,0.00,,---,0.00,VWS V14.01,2013-07-14 06:50:00,
2013-07-14 02:51:00,67.6,66.7,30.24,SSE,167,0.0,0.0,97,0.00,,---,0.00,VWS V14.01,2013-07-14 06:51:00,
2013-07-14 02:55:00,67.5,66.6,30.24,SSE,167,0.0,0.0,97,0.00,,---,0.00,VWS V14.01,2013-07-14 06:55:00,
2013-07-14 02:56:00,67.6,66.7,30.24,SSE,167,0.0,0.0,97,0.00,,---,0.00,VWS V14.01,2013-07-14 06:56:00,
2013-07-14 03:00:00,67.6,66.7,30.24,SSE,167,0.0,0.0,97,0.00,,---,0.00,VWS V14.01,2013-07-14 07:00:00,
2013-07-14 03:01:00,67.6,66.7,30.24,SSE,167,0.0,0.0,97,0.00,,---,0.00,VWS V14.01,2013-07-14 07:01:00,
2013-07-14 03:05:00,67.6,66.7,30.24,SSE,167,0.0,0.0,97,0.00,,---,0.00,VWS V14.01,2013-07-14 07:05:00,
2013-07-14 03:06:00,67.7,66.8,30.24,SSE,167,0.0,0.0,97,0.00,,---,0.00,VWS V14.01,2013-07-14 07:06:00,
2013-07-14 03:10:00,67.7,66.8,30.24,SSE,167,0.0,0.0,97,0.00,,---,0.00,VWS V14.01,2013-07-14 07:10:00,
2013-07-14 03:11:00,67.7,66.8,30.24,SSE,167,0.0,0.0,97,0.00,,---,0.00,VWS V14.01,2013-07-14 07:11:00,
2013-07-14 03:15:00,67.7,66.8,30.24,SSE,167,0.0,0.0,97,0.00,,---,0.00,VWS V14.01,2013-07-14 07:15:00,
2013-07-14 03:16:00,67.9,67.0,30.24,SSE,167,0.0,0.0,97,0.00,,---,0.00,VWS V14.01,2013-07-14 07:16:00,
2013-07-14 03:20:00,67.9,67.0,30.24,SSE,167,0.0,0.0,97,0.00,,---,0.00,VWS V14.01,2013-07-14 07:20:00,
2013-07-14 03:21:00,68.0,67.1,30.24,SSE,167,0.0,0.0,97,0.00,,---,0.00,VWS V14.01,2013-07-14 07:21:00,
2013-07-14 03:25:00,68.0,67.1,30.24,SSE,167,0.0,0.0,97,0.00,,---,0.00,VWS V14.01,2013-07-14 07:25:00,
2013-07-14 03:26:00,68.1,67.2,30.24,SSE,167,0.0,0.0,97,0.00,,---,0.00,VWS V14.01,2013-07-14 07:26:00,
2013-07-14 03:30:00,68.1,67.2,30.24,SSE,167,0.0,0.0,97,0.00,,---,0.00,VWS V14.01,2013-07-14 07:30:00,
2013-07-14 03:31:00,68.2,67.3,30.24,SSE,167,0.0,0.0,97,0.00,,---,0.00,VWS V14.01,2013-07-14 07:31:00,
2013-07-14 03:35:00,68.2,67.3,30.24,SSE,167,0.0,0.0,97,0.00,,---,0.00,VWS V14.01,2013-07-14 07:35:00,
2013-07-14 03:36:00,68.3,67.4,30.24,SSE,167,0.0,0.0,97,0.00,,---,0.00,VWS V14.01,2013-07-14 07:36:00,
2013-07-14 03:40:00,68.3,67.4,30.24,SSE,167,0.0,0.0,97,0.00,,---,0.00,VWS V14.01,2013-07-14 07:40:00,
2013-07-14 03:42:00,68.3,67.4,30.24,SSE,167,0.0,0.0,97,0.00,,---,0.00,VWS V14.01,2013-07-14 07:42:00,
2013-07-14 03:45:00,68.3,67.4,30.24,SSE,167,0.0,0.0,97,0.00,,---,0.00,VWS V14.01,2013-07-14 07:45:00,
2013-07-14 03:47:00,68.4,67.5,30.23,SSE,167,0.0,0.0,97,0.00,,---,0.00,VWS V14.01,2013-07-14 07:47:00,
2013-07-14 03:50:00,68.4,67.5,30.23,SSE,167,0.0,0.0,97,0.00,,---,0.00,VWS V14.01,2013-07-14 07:50:00,
2013-07-14 03:52:00,68.4,67.5,30.23,SSE,167,0.0,0.0,97,0.00,,---,0.00,VWS V14.01,2013-07-14 07:52:00,
2013-07-14 03:55:00,68.4,67.5,30.23,SSE,167,0.0,0.0,97,0.00,,---,0.00,VWS V14.01,2013-07-14 07:55:00,
2013-07-14 03:57:00,68.5,67.6,30.23,SSE,167,0.0,0.0,97,0.00,,---,0.00,VWS V14.01,2013-07-14 07:57:00,
2013-07-14 04:00:00,68.5,67.6,30.23,SSE,167,0.0,0.0,97,0.00,,---,0.00,VWS V14.01,2013-07-14 08:00:00,
2013-07-14 04:02:00,68.5,67.6,30.23,SSE,167,0.0,0.0,97,0.00,,---,0.00,VWS V14.01,2013-07-14 08:02:00,
2013-07-14 04:05:00,68.6,67.7,30.23,SSE,167,0.0,0.0,97,0.00,,---,0.00,VWS V14.01,2013-07-14 08:05:00,
2013-07-14 04:07:00,68.6,67.7,30.23,SSE,167,0.0,0.0,97,0.00,,---,0.00,VWS V14.01,2013-07-14 08:07:00,
2013-07-14 04:10:00,68.7,67.8,30.23,SSE,167,0.0,0.0,97,0.00,,---,0.00,VWS V14.01,2013-07-14 08:10:00,
2013-07-14 04:12:00,68.7,67.8,30.23,SSE,167,0.0,0.0,97,0.00,,---,0.00,VWS V14.01,2013-07-14 08:12:00,
2013-07-14 04:15:00,68.7,67.8,30.23,SSE,167,0.0,0.0,97,0.00,,---,0.00,VWS V14.01,2013-07-14 08:15:00,
2013-07-14 04:17:00,68.8,67.9,30.23,SSE,167,0.0,0.0,97,0.00,,---,0.00,VWS V14.01,2013-07-14 08:17:00,
2013-07-14 04:20:00,68.8,67.9,30.23,SSE,167,0.0,0.0,97,0.00,,---,0.00,VWS V14.01,2013-07-14 08:20:00,
2013-07-14 04:22:00,68.9,68.0,30.23,SSE,167,0.0,0.0,97,0.00,,---,0.00,VWS V14.01,2013-07-14 08:22:00,
2013-07-14 04:25:00,68.9,68.0,30.23,SSE,167,0.0,0.0,97,0.00,,---,0.00,VWS V14.01,2013-07-14 08:25:00,
2013-07-14 04:27:00,68.9,68.0,30.23,SSE,167,0.0,0.0,97,0.00,,---,0.00,VWS V14.01,2013-07-14 08:27:00,
2013-07-14 04:30:00,68.9,68.0,30.23,SSE,167,0.0,0.0,97,0.00,,---,0.00,VWS V14.01,2013-07-14 08:30:00,
2013-07-14 04:32:00,69.0,68.1,30.23,SSE,167,0.0,0.0,97,0.00,,---,0.00,VWS V14.01,2013-07-14 08:32:00,
2013-07-14 04:35:00,69.0,68.1,30.23,SSE,167,0.0,0.0,97,0.00,,---,0.00,VWS V14.01,2013-07-14 08:35:00,
2013-07-14 04:37:00,69.1,68.5,30.23,SSE,167,0.0,0.0,98,0.00,,---,0.00,VWS V14.01,2013-07-14 08:37:00,
2013-07-14 04:40:00,69.0,68.4,30.23,SSE,167,0.0,0.0,98,0.00,,---,0.00,VWS V14.01,2013-07-14 08:40:00,
2013-07-14 04:42:00,69.1,68.5,30.23,SSE,167,0.0,0.0,98,0.00,,---,0.00,VWS V14.01,2013-07-14 08:42:00,
2013-07-14 04:45:00,69.2,68.6,30.23,SSE,167,0.0,0.0,98,0.00,,---,0.00,VWS V14.01,2013-07-14 08:45:00,
2013-07-14 04:47:00,69.1,68.5,30.23,SSE,167,0.0,0.0,98,0.00,,---,0.00,VWS V14.01,2013-07-14 08:47:00,
2013-07-14 04:50:00,69.1,68.5,30.23,SSE,167,0.0,0.0,98,0.00,,---,0.00,VWS V14.01,2013-07-14 08:50:00,
2013-07-14 04:52:00,69.2,68.6,30.23,SSE,167,0.0,0.0,98,0.00,,---,0.00,VWS V14.01,2013-07-14 08:52:00,
2013-07-14 04:55:00,69.1,68.5,30.23,SSE,167,0.0,0.0,98,0.00,,---,0.00,VWS V14.01,2013-07-14 08:55:00,
2013-07-14 04:57:00,69.1,68.5,30.23,SSE,167,0.0,0.0,98,0.00,,---,0.00,VWS V14.01,2013-07-14 08:57:00,
2013-07-14 05:00:00,69.1,68.5,30.23,SSE,167,0.0,0.0,98,0.00,,---,0.00,VWS V14.01,2013-07-14 09:00:00,
2013-07-14 05:02:00,69.1,68.5,30.23,SSE,167,0.0,0.0,98,0.00,,---,0.00,VWS V14.01,2013-07-14 09:02:00,
2013-07-14 05:05:00,69.1,68.5,30.23,SSE,167,0.0,0.0,98,0.00,,---,0.00,VWS V14.01,2013-07-14 09:05:00,
2013-07-14 05:07:00,69.1,68.5,30.23,SSE,167,0.0,0.0,98,0.00,,---,0.00,VWS V14.01,2013-07-14 09:07:00,
2013-07-14 05:10:00,69.1,68.5,30.23,SSE,167,0.0,0.0,98,0.00,,---,0.00,VWS V14.01,2013-07-14 09:10:00,
2013-07-14 05:12:00,69.1,68.5,30.23,SSE,167,0.0,0.0,98,0.00,,---,0.00,VWS V14.01,2013-07-14 09:12:00,
2013-07-14 05:15:00,69.1,68.5,30.23,SSE,167,0.0,0.0,98,0.00,,---,0.00,VWS V14.01,2013-07-14 09:15:00,
2013-07-14 05:17:00,69.1,68.5,30.23,SSE,167,0.0,0.0,98,0.00,,---,0.00,VWS V14.01,2013-07-14 09:17:00,
2013-07-14 05:20:00,69.1,68.5,30.23,SSE,167,0.0,0.0,98,0.00,,---,0.00,VWS V14.01,2013-07-14 09:20:00,
2013-07-14 05:22:00,69.0,68.1,30.23,SSE,167,0.0,0.0,97,0.00,,---,0.00,VWS V14.01,2013-07-14 09:22:00,
2013-07-14 05:25:00,69.0,68.1,30.23,SSE,167,0.0,0.0,97,0.00,,---,0.00,VWS V14.01,2013-07-14 09:25:00,
2013-07-14 05:27:00,69.0,68.1,30.23,SSE,167,0.0,0.0,97,0.00,,---,0.00,VWS V14.01,2013-07-14 09:27:00,
2013-07-14 05:30:00,69.0,68.1,30.23,SSE,167,0.0,0.0,97,0.00,,---,0.00,VWS V14.01,2013-07-14 09:30:00,
2013-07-14 05:32:00,69.0,68.1,30.24,SSE,167,0.0,0.0,97,0.00,,---,0.00,VWS V14.01,2013-07-14 09:32:00,
2013-07-14 05:35:00,69.0,68.1,30.24,SSE,167,0.0,0.0,97,0.00,,---,0.00,VWS V14.01,2013-07-14 09:35:00,
2013-07-14 05:37:00,68.9,68.0,30.23,SSE,167,0.0,0.0,97,0.00,,---,0.00,VWS V14.01,2013-07-14 09:37:00,
2013-07-14 05:40:00,68.9,68.0,30.23,SSE,167,0.0,0.0,97,0.00,,---,0.00,VWS V14.01,2013-07-14 09:40:00,
2013-07-14 05:42:00,68.9,68.0,30.24,SSE,167,0.0,0.0,97,0.00,,---,0.00,VWS V14.01,2013-07-14 09:42:00,
2013-07-14 05:45:00,68.9,68.0,30.24,SSE,167,0.0,0.0,97,0.00,,---,0.00,VWS V14.01,2013-07-14 09:45:00,
2013-07-14 05:47:00,69.0,68.1,30.24,SSE,167,0.0,0.0,97,0.00,,---,0.00,VWS V14.01,2013-07-14 09:47:00,
2013-07-14 05:50:00,69.0,68.1,30.24,SSE,167,0.0,0.0,97,0.00,,---,0.00,VWS V14.01,2013-07-14 09:50:00,
2013-07-14 05:53:00,69.0,68.1,30.24,SSE,167,0.0,0.0,97,0.00,,---,0.00,VWS V14.01,2013-07-14 09:53:00,
2013-07-14 05:55:00,69.0,68.1,30.24,SSE,167,0.0,0.0,97,0.00,,---,0.00,VWS V14.01,2013-07-14 09:55:00,
2013-07-14 05:58:00,69.0,68.1,30.24,SSE,167,0.0,0.0,97,0.00,,---,0.00,VWS V14.01,2013-07-14 09:58:00,
2013-07-14 06:00:00,69.0,68.1,30.24,SSE,167,0.0,0.0,97,0.00,,---,0.00,VWS V14.01,2013-07-14 10:00:00,
2013-07-14 06:03:00,69.1,68.2,30.24,SSE,167,0.0,0.0,97,0.00,,---,0.00,VWS V14.01,2013-07-14 10:03:00,
2013-07-14 06:05:00,69.1,68.2,30.24,SSE,167,0.0,0.0,97,0.00,,---,0.00,VWS V14.01,2013-07-14 10:05:00,
2013-07-14 06:08:00,69.1,68.5,30.24,SSE,167,0.0,0.0,98,0.00,,---,0.00,VWS V14.01,2013-07-14 10:08:00,
2013-07-14 06:10:00,69.1,68.5,30.24,SSE,167,0.0,0.0,98,0.00,,---,0.00,VWS V14.01,2013-07-14 10:10:00,
2013-07-14 06:13:00,69.2,68.6,30.24,SSE,167,0.0,0.0,98,0.00,,---,0.00,VWS V14.01,2013-07-14 10:13:00,
2013-07-14 06:15:00,69.2,68.6,30.24,SSE,167,0.0,0.0,98,0.00,,---,0.00,VWS V14.01,2013-07-14 10:15:00,
2013-07-14 06:18:00,69.2,68.6,30.24,SSE,167,0.0,0.0,98,0.00,,---,0.00,VWS V14.01,2013-07-14 10:18:00,
2013-07-14 06:20:00,69.2,68.6,30.24,SSE,167,0.0,0.0,98,0.00,,---,0.00,VWS V14.01,2013-07-14 10:20:00,
2013-07-14 06:23:00,69.2,68.6,30.24,SSE,167,0.0,0.0,98,0.00,,---,0.00,VWS V14.01,2013-07-14 10:23:00,
2013-07-14 06:25:00,69.2,68.6,30.24,SSE,167,0.0,0.0,98,0.00,,---,0.00,VWS V14.01,2013-07-14 10:25:00,
2013-07-14 06:28:00,69.2,68.6,30.24,SSE,167,0.0,0.0,98,0.00,,---,0.00,VWS V14.01,2013-07-14 10:28:00,
2013-07-14 06:30:00,69.2,68.6,30.24,SSE,167,0.0,0.0,98,0.00,,---,0.00,VWS V14.01,2013-07-14 10:30:00,
2013-07-14 06:33:00,69.2,68.6,30.24,SSE,167,0.0,0.0,98,0.00,,---,0.00,VWS V14.01,2013-07-14 10:33:00,
2013-07-14 06:35:00,69.2,68.6,30.24,SSE,167,0.0,0.0,98,0.00,,---,0.00,VWS V14.01,2013-07-14 10:35:00,
2013-07-14 06:38:00,69.3,68.7,30.24,SSE,167,0.0,0.0,98,0.00,,---,0.00,VWS V14.01,2013-07-14 10:38:00,
2013-07-14 06:40:00,69.3,68.7,30.24,SSE,167,0.0,0.0,98,0.00,,---,0.00,VWS V14.01,2013-07-14 10:40:00,
2013-07-14 06:43:00,69.5,68.9,30.24,SSE,167,0.0,0.0,98,0.00,,---,0.00,VWS V14.01,2013-07-14 10:43:00,
2013-07-14 06:45:00,69.4,68.8,30.24,SSE,167,0.0,0.0,98,0.00,,---,0.00,VWS V14.01,2013-07-14 10:45:00,
2013-07-14 06:48:00,69.6,69.0,30.24,SSE,167,0.0,0.0,98,0.00,,---,0.00,VWS V14.01,2013-07-14 10:48:00,
2013-07-14 06:50:00,69.6,69.0,30.24,SSE,167,0.0,0.0,98,0.00,,---,0.00,VWS V14.01,2013-07-14 10:50:00,
2013-07-14 06:53:00,69.8,69.2,30.24,SSE,167,0.0,0.0,98,0.00,,---,0.00,VWS V14.01,2013-07-14 10:53:00,
2013-07-14 06:55:00,69.8,69.2,30.24,SSE,167,0.0,0.0,98,0.00,,---,0.00,VWS V14.01,2013-07-14 10:55:00,
2013-07-14 06:58:00,69.8,69.2,30.25,SSE,167,0.0,0.0,98,0.00,,---,0.00,VWS V14.01,2013-07-14 10:58:00,
2013-07-14 07:00:00,69.8,69.2,30.25,SSE,167,0.0,0.0,98,0.00,,---,0.00,VWS V14.01,2013-07-14 11:00:00,
2013-07-14 07:03:00,69.9,69.3,30.24,SSE,167,0.0,0.0,98,0.00,,---,0.00,VWS V14.01,2013-07-14 11:03:00,
2013-07-14 07:05:00,69.9,69.3,30.24,SSE,167,0.0,0.0,98,0.00,,---,0.00,VWS V14.01,2013-07-14 11:05:00,
2013-07-14 07:08:00,70.1,69.5,30.24,SSE,167,0.0,0.0,98,0.00,,---,0.00,VWS V14.01,2013-07-14 11:08:00,
2013-07-14 07:10:00,70.1,69.5,30.24,SSE,167,0.0,0.0,98,0.00,,---,0.00,VWS V14.01,2013-07-14 11:10:00,
2013-07-14 07:14:00,70.2,69.6,30.24,SSE,167,0.0,0.0,98,0.00,,---,0.00,VWS V14.01,2013-07-14 11:14:00,
2013-07-14 07:15:00,70.2,69.6,30.24,SSE,167,0.0,1.0,98,0.00,,---,0.00,VWS V14.01,2013-07-14 11:15:00,
2013-07-14 07:19:00,70.3,69.7,30.24,SSE,167,0.0,0.0,98,0.00,,---,0.00,VWS V14.01,2013-07-14 11:19:00,
2013-07-14 07:20:00,70.3,69.7,30.24,SSE,167,0.0,0.0,98,0.00,,---,0.00,VWS V14.01,2013-07-14 11:20:00,
2013-07-14 07:24:00,70.5,69.9,30.25,SSE,167,0.0,0.0,98,0.00,,---,0.00,VWS V14.01,2013-07-14 11:24:00,
2013-07-14 07:25:00,70.4,69.8,30.24,SSE,167,0.0,0.0,98,0.00,,---,0.00,VWS V14.01,2013-07-14 11:25:00,
2013-07-14 07:29:00,70.6,70.0,30.24,SSE,167,0.0,0.0,98,0.00,,---,0.00,VWS V14.01,2013-07-14 11:29:00,
2013-07-14 07:30:00,70.6,70.0,30.24,SSE,167,0.0,0.0,98,0.00,,---,0.00,VWS V14.01,2013-07-14 11:30:00,
2013-07-14 07:34:00,71.0,70.4,30.25,SSE,167,0.0,1.0,98,0.00,,---,0.00,VWS V14.01,2013-07-14 11:34:00,
2013-07-14 07:35:00,70.8,70.2,30.25,SSE,167,0.0,0.0,98,0.00,,---,0.00,VWS V14.01,2013-07-14 11:35:00,
2013-07-14 07:39:00,71.3,70.7,30.24,SSE,167,0.0,1.0,98,0.00,,---,0.00,VWS V14.01,2013-07-14 11:39:00,
2013-07-14 07:40:00,71.2,70.6,30.24,SSE,167,0.0,1.0,98,0.00,,---,0.00,VWS V14.01,2013-07-14 11:40:00,
2013-07-14 07:44:00,71.4,70.8,30.24,SSE,167,0.0,0.0,98,0.00,,---,0.00,VWS V14.01,2013-07-14 11:44:00,
2013-07-14 07:45:00,71.4,70.8,30.25,SSE,167,0.0,1.0,98,0.00,,---,0.00,VWS V14.01,2013-07-14 11:45:00,
2013-07-14 07:49:00,71.7,71.1,30.24,SSE,167,0.0,0.0,98,0.00,,---,0.00,VWS V14.01,2013-07-14 11:49:00,
2013-07-14 07:50:00,71.6,71.0,30.24,SSE,167,0.0,0.0,98,0.00,,---,0.00,VWS V14.01,2013-07-14 11:50:00,
2013-07-14 07:54:00,71.9,71.3,30.24,SSE,167,0.0,2.0,98,0.00,,---,0.00,VWS V14.01,2013-07-14 11:54:00,
2013-07-14 07:55:00,71.9,71.3,30.24,SSE,167,0.0,2.0,98,0.00,,---,0.00,VWS V14.01,2013-07-14 11:55:00,
2013-07-14 07:59:00,72.1,71.5,30.25,SSE,167,0.0,0.0,98,0.00,,---,0.00,VWS V14.01,2013-07-14 11:59:00,
2013-07-14 08:00:00,72.1,71.5,30.25,SSE,167,0.0,3.0,98,0.00,,---,0.00,VWS V14.01,2013-07-14 12:00:00,
2013-07-14 08:04:00,72.3,71.7,30.24,SSE,167,0.0,1.0,98,0.00,,---,0.00,VWS V14.01,2013-07-14 12:04:00,
2013-07-14 08:05:00,72.2,71.6,30.25,SSE,167,0.0,0.0,98,0.00,,---,0.00,VWS V14.01,2013-07-14 12:05:00,
2013-07-14 08:09:00,72.5,71.9,30.24,WNW,284,0.0,4.0,98,0.00,,---,0.00,VWS V14.01,2013-07-14 12:09:00,
2013-07-14 08:10:00,72.5,71.9,30.24,SSE,167,0.0,1.0,98,0.00,,---,0.00,VWS V14.01,2013-07-14 12:10:00,
2013-07-14 08:14:00,72.7,72.1,30.24,West,274,3.0,4.0,98,0.00,,---,0.00,VWS V14.01,2013-07-14 12:14:00,
2013-07-14 08:15:00,72.7,72.1,30.24,West,281,0.0,4.0,98,0.00,,---,0.00,VWS V14.01,2013-07-14 12:15:00,
2013-07-14 08:19:00,72.8,72.2,30.24,SW,222,2.0,3.0,98,0.00,,---,0.00,VWS V14.01,2013-07-14 12:19:00,
2013-07-14 08:20:00,72.8,72.2,30.24,West,274,0.0,4.0,98,0.00,,---,0.00,VWS V14.01,2013-07-14 12:20:00,
2013-07-14 08:24:00,73.0,72.4,30.24,SW,223,0.0,2.0,98,0.00,,---,0.00,VWS V14.01,2013-07-14 12:24:00,
2013-07-14 08:25:00,72.9,72.3,30.24,SW,223,2.0,3.0,98,0.00,,---,0.00,VWS V14.01,2013-07-14 12:25:00,
2013-07-14 08:29:00,73.2,72.6,30.24,SW,231,3.0,3.0,98,0.00,,---,0.00,VWS V14.01,2013-07-14 12:29:00,
2013-07-14 08:30:00,73.0,72.4,30.24,West,269,0.0,5.0,98,0.00,,---,0.00,VWS V14.01,2013-07-14 12:30:00,
2013-07-14 08:34:00,73.4,72.8,30.24,WNW,284,0.0,4.0,98,0.00,,---,0.00,VWS V14.01,2013-07-14 12:34:00,
2013-07-14 08:35:00,73.3,72.7,30.24,SW,231,0.0,3.0,98,0.00,,---,0.00,VWS V14.01,2013-07-14 12:35:00,
2013-07-14 08:39:00,73.6,73.0,30.24,SW,229,2.0,5.0,98,0.00,,---,0.00,VWS V14.01,2013-07-14 12:39:00,
2013-07-14 08:40:00,73.6,73.0,30.24,SW,221,0.0,6.0,98,0.00,,---,0.00,VWS V14.01,2013-07-14 12:40:00,
2013-07-14 08:44:00,73.8,72.9,30.24,SSW,211,0.0,3.0,97,0.00,,---,0.00,VWS V14.01,2013-07-14 12:44:00,
2013-07-14 08:45:00,73.8,72.9,30.24,WSW,252,1.0,5.0,97,0.00,,---,0.00,VWS V14.01,2013-07-14 12:45:00,
2013-07-14 08:49:00,74.2,73.3,30.24,NW,325,3.0,3.0,97,0.00,,---,0.00,VWS V14.01,2013-07-14 12:49:00,
2013-07-14 08:50:00,74.0,73.1,30.23,SSW,211,0.0,3.0,97,0.00,,---,0.00,VWS V14.01,2013-07-14 12:50:00,
2013-07-14 08:54:00,74.5,73.3,30.23,WNW,284,0.0,5.0,96,0.00,,---,0.00,VWS V14.01,2013-07-14 12:54:00,
2013-07-14 08:55:00,74.4,73.2,30.24,West,270,4.0,4.0,96,0.00,,---,0.00,VWS V14.01,2013-07-14 12:55:00,
2013-07-14 09:00:00,74.9,73.4,30.23,SW,229,0.0,3.0,95,0.00,,---,0.00,VWS V14.01,2013-07-14 13:00:00,
2013-07-14 09:05:00,75.3,73.5,30.23,WSW,256,0.0,2.0,94,0.00,,---,0.00,VWS V14.01,2013-07-14 13:05:00,
2013-07-14 09:10:00,75.7,73.2,30.23,West,269,0.0,3.0,92,0.00,,---,0.00,VWS V14.01,2013-07-14 13:10:00,
2013-07-14 09:15:00,76.3,73.5,30.23,West,281,2.0,5.0,91,0.00,,---,0.00,VWS V14.01,2013-07-14 13:15:00,
2013-07-14 09:20:00,76.5,73.7,30.23,WNW,292,0.0,5.0,91,0.00,,---,0.00,VWS V14.01,2013-07-14 13:20:00,
2013-07-14 09:22:00,76.9,73.4,30.23,WSW,242,2.0,2.0,89,0.00,,---,0.00,VWS V14.01,2013-07-14 13:22:00,
2013-07-14 09:25:00,76.9,73.4,30.23,WSW,242,2.0,2.0,89,0.00,,---,0.00,VWS V14.01,2013-07-14 13:25:00,
2013-07-14 09:27:00,77.3,73.5,30.22,WNW,288,3.0,4.0,88,0.00,,---,0.00,VWS V14.01,2013-07-14 13:27:00,
2013-07-14 09:30:00,77.3,73.5,30.22,WNW,288,3.0,4.0,88,0.00,,---,0.00,VWS V14.01,2013-07-14 13:30:00,
2013-07-14 09:32:00,77.8,72.9,30.22,NW,319,2.0,6.0,85,0.00,,---,0.00,VWS V14.01,2013-07-14 13:32:00,
2013-07-14 09:35:00,77.8,72.9,30.22,NW,319,2.0,6.0,85,0.00,,---,0.00,VWS V14.01,2013-07-14 13:35:00,
2013-07-14 09:37:00,78.2,73.3,30.22,West,263,1.0,5.0,85,0.00,,---,0.00,VWS V14.01,2013-07-14 13:37:00,
2013-07-14 09:40:00,78.2,73.3,30.22,West,263,1.0,5.0,85,0.00,,---,0.00,VWS V14.01,2013-07-14 13:40:00,
2013-07-14 09:42:00,78.5,73.3,30.22,West,267,1.0,6.0,84,0.00,,---,0.00,VWS V14.01,2013-07-14 13:42:00,
2013-07-14 09:45:00,78.5,73.3,30.22,West,267,1.0,6.0,84,0.00,,---,0.00,VWS V14.01,2013-07-14 13:45:00,
2013-07-14 09:47:00,78.7,73.5,30.22,ENE,63,1.0,3.0,84,0.00,,---,0.00,VWS V14.01,2013-07-14 13:47:00,
2013-07-14 09:50:00,78.7,73.5,30.22,ENE,63,1.0,3.0,84,0.00,,---,0.00,VWS V14.01,2013-07-14 13:50:00,
2013-07-14 09:52:00,78.9,72.9,30.22,SW,232,2.0,7.0,82,0.00,,---,0.00,VWS V14.01,2013-07-14 13:52:00,
2013-07-14 09:55:00,78.9,72.9,30.22,SW,232,2.0,7.0,82,0.00,,---,0.00,VWS V14.01,2013-07-14 13:55:00,
2013-07-14 09:57:00,79.2,72.9,30.22,West,262,6.0,7.0,81,0.00,,---,0.00,VWS V14.01,2013-07-14 13:57:00,
2013-07-14 10:00:00,79.2,72.9,30.22,West,262,6.0,7.0,81,0.00,,---,0.00,VWS V14.01,2013-07-14 14:00:00,
2013-07-14 10:02:00,79.4,73.1,30.22,West,277,0.0,10.0,81,0.00,,---,0.00,VWS V14.01,2013-07-14 14:02:00,
2013-07-14 10:05:00,79.4,73.1,30.22,West,277,0.0,10.0,81,0.00,,---,0.00,VWS V14.01,2013-07-14 14:05:00,
2013-07-14 10:07:00,79.6,73.6,30.22,WSW,241,0.0,6.0,82,0.00,,---,0.00,VWS V14.01,2013-07-14 14:07:00,
2013-07-14 10:10:00,79.6,73.6,30.22,WSW,241,0.0,6.0,82,0.00,,---,0.00,VWS V14.01,2013-07-14 14:10:00,
2013-07-14 10:12:00,79.7,73.4,30.22,WSW,243,1.0,3.0,81,0.00,,---,0.00,VWS V14.01,2013-07-14 14:12:00,
2013-07-14 10:15:00,79.7,73.4,30.22,WSW,243,1.0,3.0,81,0.00,,---,0.00,VWS V14.01,2013-07-14 14:15:00,
2013-07-14 10:17:00,79.9,73.9,30.22,North,349,1.0,3.0,82,0.00,,---,0.00,VWS V14.01,2013-07-14 14:17:00,
2013-07-14 10:20:00,79.9,73.9,30.22,North,349,1.0,3.0,82,0.00,,---,0.00,VWS V14.01,2013-07-14 14:20:00,
2013-07-14 10:22:00,80.1,74.1,30.21,NW,304,0.0,4.0,82,0.00,,---,0.00,VWS V14.01,2013-07-14 14:22:00,
2013-07-14 10:25:00,80.1,74.1,30.21,NW,304,0.0,4.0,82,0.00,,---,0.00,VWS V14.01,2013-07-14 14:25:00,
2013-07-14 10:27:00,80.4,73.7,30.21,West,263,4.0,6.0,80,0.00,,---,0.00,VWS V14.01,2013-07-14 14:27:00,
2013-07-14 10:30:00,80.4,73.7,30.21,West,263,4.0,6.0,80,0.00,,---,0.00,VWS V14.01,2013-07-14 14:30:00,
2013-07-14 10:32:00,80.7,73.2,30.21,West,277,0.0,5.0,78,0.00,,---,0.00,VWS V14.01,2013-07-14 14:32:00,
2013-07-14 10:35:00,80.7,73.2,30.21,West,277,0.0,5.0,78,0.00,,---,0.00,VWS V14.01,2013-07-14 14:35:00,
2013-07-14 10:37:00,80.9,73.4,30.21,WNW,286,2.0,3.0,78,0.00,,---,0.00,VWS V14.01,2013-07-14 14:37:00,
2013-07-14 10:40:00,80.9,73.4,30.21,WNW,286,2.0,3.0,78,0.00,,---,0.00,VWS V14.01,2013-07-14 14:40:00,
2013-07-14 10:42:00,81.2,73.7,30.22,West,273,1.0,6.0,78,0.00,,---,0.00,VWS V14.01,2013-07-14 14:42:00,
2013-07-14 10:45:00,81.2,73.7,30.22,West,273,1.0,6.0,78,0.00,,---,0.00,VWS V14.01,2013-07-14 14:45:00,
2013-07-14 10:47:00,81.5,74.4,30.22,ENE,76,2.0,3.0,79,0.00,,---,0.00,VWS V14.01,2013-07-14 14:47:00,
2013-07-14 10:50:00,81.5,74.4,30.22,ENE,76,2.0,3.0,79,0.00,,---,0.00,VWS V14.01,2013-07-14 14:50:00,
2013-07-14 10:52:00,81.7,74.6,30.21,NNE,31,0.0,2.0,79,0.00,,---,0.00,VWS V14.01,2013-07-14 14:52:00,
2013-07-14 10:55:00,81.7,74.6,30.21,NNE,31,0.0,2.0,79,0.00,,---,0.00,VWS V14.01,2013-07-14 14:55:00,
2013-07-14 10:57:00,82.0,74.8,30.21,NW,313,1.0,11.0,79,0.00,,---,0.00,VWS V14.01,2013-07-14 14:57:00,
2013-07-14 11:00:00,82.0,74.8,30.21,NW,313,1.0,11.0,79,0.00,,---,0.00,VWS V14.01,2013-07-14 15:00:00,
2013-07-14 11:02:00,82.3,75.5,30.21,SSW,210,3.0,4.0,80,0.00,,---,0.00,VWS V14.01,2013-07-14 15:02:00,
2013-07-14 11:05:00,82.3,75.5,30.21,SSW,210,3.0,4.0,80,0.00,,---,0.00,VWS V14.01,2013-07-14 15:05:00,
2013-07-14 11:07:00,82.3,74.0,30.21,SSW,210,0.0,4.0,76,0.00,,---,0.00,VWS V14.01,2013-07-14 15:07:00,
2013-07-14 11:10:00,82.3,74.0,30.21,SSW,210,0.0,4.0,76,0.00,,---,0.00,VWS V14.01,2013-07-14 15:10:00,
2013-07-14 11:12:00,82.7,73.6,30.21,NW,308,0.0,4.0,74,0.00,,---,0.00,VWS V14.01,2013-07-14 15:12:00,
2013-07-14 11:15:00,82.7,73.6,30.21,NW,308,0.0,4.0,74,0.00,,---,0.00,VWS V14.01,2013-07-14 15:15:00,
2013-07-14 11:17:00,82.8,74.9,30.21,NW,308,2.0,2.0,77,0.00,,---,0.00,VWS V14.01,2013-07-14 15:17:00,
2013-07-14 11:20:00,82.8,74.9,30.21,NW,308,2.0,2.0,77,0.00,,---,0.00,VWS V14.01,2013-07-14 15:20:00,
2013-07-14 11:23:00,83.2,75.2,30.21,NW,311,0.0,0.0,77,0.00,,---,0.00,VWS V14.01,2013-07-14 15:23:00,
2013-07-14 11:25:00,83.2,75.2,30.21,NW,311,0.0,2.0,77,0.00,,---,0.00,VWS V14.01,2013-07-14 15:25:00,
2013-07-14 11:28:00,83.8,73.8,30.21,WSW,257,0.0,0.0,72,0.00,,---,0.00,VWS V14.01,2013-07-14 15:28:00,
2013-07-14 11:30:00,83.8,73.8,30.21,WSW,257,0.0,3.0,72,0.00,,---,0.00,VWS V14.01,2013-07-14 15:30:00,
2013-07-14 11:33:00,83.9,74.7,30.21,WSW,252,0.0,1.0,74,0.00,,---,0.00,VWS V14.01,2013-07-14 15:33:00,
2013-07-14 11:35:00,84.0,74.8,30.21,WSW,252,0.0,4.0,74,0.00,,---,0.00,VWS V14.01,2013-07-14 15:35:00,
2013-07-14 11:38:00,83.9,73.9,30.21,WSW,258,0.0,0.0,72,0.00,,---,0.00,VWS V14.01,2013-07-14 15:38:00,
2013-07-14 11:40:00,83.9,73.9,30.21,WSW,258,0.0,3.0,72,0.00,,---,0.00,VWS V14.01,2013-07-14 15:40:00,
2013-07-14 11:43:00,84.7,75.5,30.21,West,267,2.0,2.0,74,0.00,,---,0.00,VWS V14.01,2013-07-14 15:43:00,
2013-07-14 11:45:00,84.7,75.5,30.21,West,267,1.0,2.0,74,0.00,,---,0.00,VWS V14.01,2013-07-14 15:45:00,
2013-07-14 11:48:00,84.1,74.9,30.21,West,269,0.0,1.0,74,0.00,,---,0.00,VWS V14.01,2013-07-14 15:48:00,
2013-07-14 11:50:00,84.2,75.8,30.21,West,269,0.0,3.0,76,0.00,,---,0.00,VWS V14.01,2013-07-14 15:50:00,
2013-07-14 11:53:00,84.5,75.3,30.20,West,260,2.0,2.0,74,0.00,,---,0.00,VWS V14.01,2013-07-14 15:53:00,
2013-07-14 11:55:00,84.4,74.8,30.20,SW,227,2.0,4.0,73,0.00,,---,0.00,VWS V14.01,2013-07-14 15:55:00,
2013-07-14 11:58:00,84.8,73.9,30.21,WSW,248,2.0,2.0,70,0.00,,---,0.00,VWS V14.01,2013-07-14 15:58:00,
2013-07-14 12:00:00,84.7,75.5,30.20,WSW,258,0.0,8.0,74,0.00,,---,0.00,VWS V14.01,2013-07-14 16:00:00,
2013-07-14 12:03:00,85.3,73.6,30.20,West,264,0.0,4.0,68,0.00,,---,0.00,VWS V14.01,2013-07-14 16:03:00,
2013-07-14 12:05:00,85.3,74.4,30.21,West,264,4.0,4.0,70,0.00,,---,0.00,VWS V14.01,2013-07-14 16:05:00,
2013-07-14 12:08:00,85.5,75.0,30.20,WNW,290,0.0,1.0,71,0.00,,---,0.00,VWS V14.01,2013-07-14 16:08:00,
2013-07-14 12:10:00,85.5,75.0,30.20,WNW,290,0.0,6.0,71,0.00,,---,0.00,VWS V14.01,2013-07-14 16:10:00,
2013-07-14 12:13:00,85.4,73.6,30.20,West,279,4.0,5.0,68,0.00,,---,0.00,VWS V14.01,2013-07-14 16:13:00,
2013-07-14 12:15:00,85.4,74.1,30.20,WSW,249,3.0,6.0,69,0.00,,---,0.00,VWS V14.01,2013-07-14 16:15:00,
2013-07-14 12:18:00,85.6,72.9,30.20,West,273,0.0,0.0,66,0.00,,---,0.00,VWS V14.01,2013-07-14 16:18:00,
2013-07-14 12:20:00,85.5,72.8,30.20,West,273,0.0,6.0,66,0.00,,---,0.00,VWS V14.01,2013-07-14 16:20:00,
2013-07-14 12:23:00,85.9,74.6,30.20,West,279,1.0,2.0,69,0.00,,---,0.00,VWS V14.01,2013-07-14 16:23:00,
2013-07-14 12:25:00,85.8,74.9,30.20,West,279,0.0,3.0,70,0.00,,---,0.00,VWS V14.01,2013-07-14 16:25:00,
2013-07-14 12:28:00,86.3,73.6,30.19,WSW,258,5.0,5.0,66,0.00,,---,0.00,VWS V14.01,2013-07-14 16:28:00,
2013-07-14 12:30:00,86.2,74.0,30.19,WSW,246,1.0,11.0,67,0.00,,---,0.00,VWS V14.01,2013-07-14 16:30:00,
2013-07-14 12:33:00,86.5,73.3,30.19,NW,313,1.0,2.0,65,0.00,,---,0.00,VWS V14.01,2013-07-14 16:33:00,
2013-07-14 12:35:00,86.6,73.4,30.19,NW,313,0.0,7.0,65,0.00,,---,0.00,VWS V14.01,2013-07-14 16:35:00,
2013-07-14 12:38:00,86.2,74.0,30.19,WNW,302,1.0,2.0,67,0.00,,---,0.00,VWS V14.01,2013-07-14 16:38:00,
2013-07-14 12:40:00,86.3,74.5,30.19,WNW,302,0.0,2.0,68,0.00,,---,0.00,VWS V14.01,2013-07-14 16:40:00,
2013-07-14 12:43:00,85.7,73.9,30.19,West,272,0.0,0.0,68,0.00,,---,0.00,VWS V14.01,2013-07-14 16:43:00,
2013-07-14 12:45:00,85.8,74.5,30.19,West,272,0.0,4.0,69,0.00,,---,0.00,VWS V14.01,2013-07-14 16:45:00,
2013-07-14 12:49:00,85.3,74.0,30.19,WNW,294,0.0,4.0,69,0.00,,---,0.00,VWS V14.01,2013-07-14 16:49:00,
2013-07-14 12:50:00,85.4,74.9,30.19,WNW,294,4.0,6.0,71,0.00,,---,0.00,VWS V14.01,2013-07-14 16:50:00,
2013-07-14 12:54:00,84.8,73.1,30.19,WNW,294,0.0,1.0,68,0.00,,---,0.00,VWS V14.01,2013-07-14 16:54:00,
2013-07-14 12:55:00,84.9,73.2,30.19,WNW,294,1.0,4.0,68,0.00,,---,0.00,VWS V14.01,2013-07-14 16:55:00,
2013-07-14 12:59:00,84.8,74.4,30.19,WNW,283,0.0,4.0,71,0.00,,---,0.00,VWS V14.01,2013-07-14 16:59:00,
2013-07-14 13:00:00,84.8,74.4,30.19,WNW,294,0.0,3.0,71,0.00,,---,0.00,VWS V14.01,2013-07-14 17:00:00,
2013-07-14 13:04:00,85.0,71.9,30.19,ENE,71,0.0,3.0,65,0.00,,---,0.00,VWS V14.01,2013-07-14 17:04:00,
2013-07-14 13:05:00,85.0,73.3,30.19,West,280,0.0,4.0,68,0.00,,---,0.00,VWS V14.01,2013-07-14 17:05:00,
2013-07-14 13:09:00,85.4,74.1,30.19,ENE,71,0.0,3.0,69,0.00,,---,0.00,VWS V14.01,2013-07-14 17:09:00,
2013-07-14 13:10:00,85.3,73.1,30.19,ENE,71,3.0,3.0,67,0.00,,---,0.00,VWS V14.01,2013-07-14 17:10:00,
2013-07-14 13:14:00,85.4,74.5,30.19,NNW,327,0.0,3.0,70,0.00,,---,0.00,VWS V14.01,2013-07-14 17:14:00,
2013-07-14 13:15:00,85.4,73.6,30.19,NNW,333,2.0,4.0,68,0.00,,---,0.00,VWS V14.01,2013-07-14 17:15:00,
2013-07-14 13:19:00,85.5,71.9,30.18,West,275,4.0,6.0,64,0.00,,---,0.00,VWS V14.01,2013-07-14 17:19:00,
2013-07-14 13:20:00,85.5,72.4,30.18,SW,231,0.0,5.0,65,0.00,,---,0.00,VWS V14.01,2013-07-14 17:20:00,
2013-07-14 13:24:00,86.0,73.3,30.18,West,277,0.0,6.0,66,0.00,,---,0.00,VWS V14.01,2013-07-14 17:24:00,
2013-07-14 13:25:00,85.9,73.7,30.18,West,271,0.0,6.0,67,0.00,,---,0.00,VWS V14.01,2013-07-14 17:25:00,
2013-07-14 13:29:00,86.7,73.1,30.19,West,279,0.0,1.0,64,0.00,,---,0.00,VWS V14.01,2013-07-14 17:29:00,
2013-07-14 13:30:00,86.5,72.4,30.18,West,279,1.0,6.0,63,0.00,,---,0.00,VWS V14.01,2013-07-14 17:30:00,
2013-07-14 13:34:00,87.2,72.1,30.18,SW,227,3.0,6.0,61,0.00,,---,0.00,VWS V14.01,2013-07-14 17:34:00,
2013-07-14 13:35:00,87.1,73.4,30.18,WSW,255,0.0,4.0,64,0.00,,---,0.00,VWS V14.01,2013-07-14 17:35:00,
2013-07-14 13:39:00,87.4,73.3,30.18,WSW,238,0.0,2.0,63,0.00,,---,0.00,VWS V14.01,2013-07-14 17:39:00,
2013-07-14 13:40:00,87.5,73.4,30.18,WNW,302,0.0,6.0,63,0.00,,---,0.00,VWS V14.01,2013-07-14 17:40:00,
2013-07-14 13:44:00,86.9,72.3,30.18,WNW,300,1.0,1.0,62,0.00,,---,0.00,VWS V14.01,2013-07-14 17:44:00,
2013-07-14 13:45:00,86.8,73.2,30.18,NNW,348,0.0,3.0,64,0.00,,---,0.00,VWS V14.01,2013-07-14 17:45:00,
2013-07-14 13:49:00,87.5,72.4,30.18,WSW,249,1.0,2.0,61,0.00,,---,0.00,VWS V14.01,2013-07-14 17:49:00,
2013-07-14 13:50:00,87.4,72.3,30.18,WSW,249,2.0,6.0,61,0.00,,---,0.00,VWS V14.01,2013-07-14 17:50:00,
2013-07-14 13:54:00,87.1,72.5,30.18,West,260,0.0,4.0,62,0.00,,---,0.00,VWS V14.01,2013-07-14 17:54:00,
2013-07-14 13:55:00,87.2,73.6,30.18,West,264,4.0,4.0,64,0.00,,---,0.00,VWS V14.01,2013-07-14 17:55:00,
2013-07-14 13:59:00,86.9,74.6,30.18,West,261,0.0,1.0,67,0.00,,---,0.00,VWS V14.01,2013-07-14 17:59:00,
2013-07-14 14:00:00,86.9,73.7,30.18,West,261,0.0,4.0,65,0.00,,---,0.00,VWS V14.01,2013-07-14 18:00:00,
2013-07-14 14:04:00,86.9,72.3,30.18,West,262,1.0,2.0,62,0.00,,---,0.00,VWS V14.01,2013-07-14 18:04:00,
2013-07-14 14:05:00,86.8,72.7,30.18,West,262,0.0,1.0,63,0.00,,---,0.00,VWS V14.01,2013-07-14 18:05:00,
2013-07-14 14:09:00,86.9,75.1,30.18,West,262,0.0,1.0,68,0.00,,---,0.00,VWS V14.01,2013-07-14 18:09:00,
2013-07-14 14:10:00,87.0,73.8,30.18,West,262,1.0,2.0,65,0.00,,---,0.00,VWS V14.01,2013-07-14 18:10:00,
2013-07-14 14:14:00,86.6,73.9,30.17,NNW,341,0.0,1.0,66,0.00,,---,0.00,VWS V14.01,2013-07-14 18:14:00,
2013-07-14 14:15:00,86.7,76.2,30.17,NNW,341,0.0,2.0,71,0.00,,---,0.00,VWS V14.01,2013-07-14 18:15:00,
2013-07-14 14:19:00,86.0,75.1,30.17,NNW,327,3.0,3.0,70,0.00,,---,0.00,VWS V14.01,2013-07-14 18:19:00,
2013-07-14 14:20:00,86.3,75.4,30.17,NNW,340,1.0,2.0,70,0.00,,---,0.00,VWS V14.01,2013-07-14 18:20:00,
2013-07-14 14:24:00,85.5,75.0,30.17,NNW,327,0.0,1.0,71,0.00,,---,0.00,VWS V14.01,2013-07-14 18:24:00,
2013-07-14 14:25:00,85.7,76.5,30.17,NNW,327,0.0,3.0,74,0.00,,---,0.00,VWS V14.01,2013-07-14 18:25:00,
2013-07-14 14:30:00,85.6,75.5,30.17,NNW,327,0.0,2.0,72,0.00,,---,0.00,VWS V14.01,2013-07-14 18:30:00,
2013-07-14 14:35:00,84.8,72.6,30.17,West,275,0.0,6.0,67,0.00,,---,0.00,VWS V14.01,2013-07-14 18:35:00,
2013-07-14 14:40:00,84.9,75.3,30.17,West,276,0.0,1.0,73,0.00,,---,0.00,VWS V14.01,2013-07-14 18:40:00,
2013-07-14 14:45:00,84.7,72.5,30.17,West,273,0.0,1.0,67,0.00,,---,0.00,VWS V14.01,2013-07-14 18:45:00,
2013-07-14 14:50:00,85.6,76.4,30.17,West,274,0.0,2.0,74,0.00,,---,0.00,VWS V14.01,2013-07-14 18:50:00,
2013-07-14 14:55:00,87.5,73.8,30.17,WSW,257,0.0,3.0,64,0.00,,---,0.00,VWS V14.01,2013-07-14 18:55:00,
2013-07-14 15:00:00,89.1,73.4,30.17,West,268,0.0,3.0,60,0.00,,---,0.00,VWS V14.01,2013-07-14 19:00:00,
2013-07-14 15:05:00,89.0,74.3,30.17,NW,326,1.0,3.0,62,0.00,,---,0.00,VWS V14.01,2013-07-14 19:05:00,
2013-07-14 15:10:00,88.2,74.5,30.17,WNW,286,2.0,2.0,64,0.00,,---,0.00,VWS V14.01,2013-07-14 19:10:00,
2013-07-14 15:15:00,86.6,74.8,30.16,WNW,286,0.0,1.0,68,0.00,,---,0.00,VWS V14.01,2013-07-14 19:15:00,
2013-07-14 15:20:00,87.2,76.7,30.16,South,176,0.0,3.0,71,0.00,,---,0.00,VWS V14.01,2013-07-14 19:20:00,
2013-07-14 15:25:00,87.6,73.9,30.16,ENE,66,2.0,3.0,64,0.00,,---,0.00,VWS V14.01,2013-07-14 19:25:00,
2013-07-14 15:30:00,87.7,73.6,30.16,ENE,69,0.0,1.0,63,0.00,,---,0.00,VWS V14.01,2013-07-14 19:30:00,
2013-07-14 15:35:00,87.6,74.8,30.16,ENE,69,0.0,1.0,66,0.00,,---,0.00,VWS V14.01,2013-07-14 19:35:00,
2013-07-14 15:40:00,87.2,74.5,30.16,ENE,71,1.0,1.0,66,0.00,,---,0.00,VWS V14.01,2013-07-14 19:40:00,
2013-07-14 15:45:00,86.6,74.3,30.16,ENE,73,0.0,1.0,67,0.00,,---,0.00,VWS V14.01,2013-07-14 19:45:00,
2013-07-14 15:50:00,85.9,74.6,30.16,ENE,73,0.0,0.0,69,0.00,,---,0.00,VWS V14.01,2013-07-14 19:50:00,
2013-07-14 15:55:00,85.5,75.4,30.16,ENE,73,0.0,0.0,72,0.00,,---,0.00,VWS V14.01,2013-07-14 19:55:00,
2013-07-14 16:00:00,85.5,75.9,30.16,ENE,73,0.0,1.0,73,0.00,,---,0.00,VWS V14.01,2013-07-14 20:00:00,
2013-07-14 16:05:00,85.6,75.1,30.16,ENE,73,0.0,1.0,71,0.00,,---,0.00,VWS V14.01,2013-07-14 20:05:00,
2013-07-14 16:10:00,85.7,75.2,30.16,ENE,73,0.0,1.0,71,0.00,,---,0.00,VWS V14.01,2013-07-14 20:10:00,
2013-07-14 16:11:00,85.7,75.6,30.16,ESE,111,3.0,3.0,72,0.00,,---,0.00,VWS V14.01,2013-07-14 20:11:00,
2013-07-14 16:15:00,85.7,75.6,30.16,ESE,112,0.0,3.0,72,0.00,,---,0.00,VWS V14.01,2013-07-14 20:15:00,
2013-07-14 16:16:00,85.6,74.7,30.16,East,96,0.0,3.0,70,0.00,,---,0.00,VWS V14.01,2013-07-14 20:16:00,
2013-07-14 16:20:00,85.5,75.4,30.16,East,98,1.0,3.0,72,0.00,,---,0.00,VWS V14.01,2013-07-14 20:20:00,
2013-07-14 16:21:00,85.5,75.9,30.15,East,89,0.0,2.0,73,0.00,,---,0.00,VWS V14.01,2013-07-14 20:21:00,
2013-07-14 16:25:00,85.4,75.3,30.16,East,89,0.0,2.0,72,0.00,,---,0.00,VWS V14.01,2013-07-14 20:25:00,
2013-07-14 16:26:00,85.5,75.9,30.15,East,89,0.0,1.0,73,0.00,,---,0.00,VWS V14.01,2013-07-14 20:26:00,
2013-07-14 16:30:00,85.5,76.3,30.15,East,89,1.0,2.0,74,0.00,,---,0.00,VWS V14.01,2013-07-14 20:30:00,
2013-07-14 16:31:00,85.4,75.3,30.15,East,89,0.0,2.0,72,0.00,,---,0.00,VWS V14.01,2013-07-14 20:31:00,
2013-07-14 16:35:00,85.3,76.1,30.15,East,89,0.0,2.0,74,0.00,,---,0.00,VWS V14.01,2013-07-14 20:35:00,
2013-07-14 16:36:00,85.2,75.6,30.15,WNW,302,0.0,4.0,73,0.00,,---,0.00,VWS V14.01,2013-07-14 20:36:00,
2013-07-14 16:40:00,85.1,75.1,30.15,WNW,302,0.0,4.0,72,0.00,,---,0.00,VWS V14.01,2013-07-14 20:40:00,
2013-07-14 16:41:00,84.9,75.7,30.15,WNW,302,0.0,0.0,74,0.00,,---,0.00,VWS V14.01,2013-07-14 20:41:00,
2013-07-14 16:45:00,84.8,75.6,30.15,WNW,302,0.0,0.0,74,0.00,,---,0.00,VWS V14.01,2013-07-14 20:45:00,
2013-07-14 16:46:00,84.8,75.6,30.15,NE,55,0.0,5.0,74,0.00,,---,0.00,VWS V14.01,2013-07-14 20:46:00,
2013-07-14 16:50:00,84.8,75.6,30.15,NE,55,0.0,5.0,74,0.00,,---,0.00,VWS V14.01,2013-07-14 20:50:00,
2013-07-14 16:51:00,84.8,74.8,30.15,NW,308,0.0,2.0,72,0.00,,---,0.00,VWS V14.01,2013-07-14 20:51:00,
2013-07-14 16:55:00,84.9,75.3,30.15,NW,308,1.0,2.0,73,0.00,,---,0.00,VWS V14.01,2013-07-14 20:55:00,
2013-07-14 16:56:00,85.2,75.2,30.15,NW,308,0.0,1.0,72,0.00,,---,0.00,VWS V14.01,2013-07-14 20:56:00,
2013-07-14 17:00:00,85.2,74.7,30.15,NW,308,0.0,1.0,71,0.00,,---,0.00,VWS V14.01,2013-07-14 21:00:00,
2013-07-14 17:01:00,85.4,74.9,30.15,NW,308,0.0,1.0,71,0.00,,---,0.00,VWS V14.01,2013-07-14 21:01:00,
2013-07-14 17:05:00,85.4,75.8,30.15,NW,308,0.0,1.0,73,0.00,,---,0.00,VWS V14.01,2013-07-14 21:05:00,
2013-07-14 17:06:00,85.5,74.6,30.15,NW,308,0.0,0.0,70,0.00,,---,0.00,VWS V14.01,2013-07-14 21:06:00,
2013-07-14 17:10:00,85.5,75.4,30.15,NW,308,0.0,0.0,72,0.00,,---,0.00,VWS V14.01,2013-07-14 21:10:00,
2013-07-14 17:11:00,85.4,76.2,30.15,NW,309,0.0,1.0,74,0.00,,---,0.00,VWS V14.01,2013-07-14 21:11:00,
2013-07-14 17:15:00,85.4,75.3,30.15,NW,309,0.0,1.0,72,0.00,,---,0.00,VWS V14.01,2013-07-14 21:15:00,
2013-07-14 17:16:00,85.1,74.2,30.14,NW,309,0.0,0.0,70,0.00,,---,0.00,VWS V14.01,2013-07-14 21:16:00,
2013-07-14 17:20:00,85.1,75.9,30.14,NW,309,0.0,0.0,74,0.00,,---,0.00,VWS V14.01,2013-07-14 21:20:00,
2013-07-14 17:21:00,85.1,76.7,30.14,NW,309,0.0,1.0,76,0.00,,---,0.00,VWS V14.01,2013-07-14 21:21:00,
2013-07-14 17:25:00,85.1,76.3,30.14,NW,309,0.0,1.0,75,0.00,,---,0.00,VWS V14.01,2013-07-14 21:25:00,
2013-07-14 17:26:00,85.1,76.7,30.14,NW,312,0.0,1.0,76,0.00,,---,0.00,VWS V14.01,2013-07-14 21:26:00,
2013-07-14 17:30:00,85.1,77.1,30.14,NW,312,0.0,1.0,77,0.00,,---,0.00,VWS V14.01,2013-07-14 21:30:00,
2013-07-14 17:31:00,84.9,76.1,30.14,NW,312,0.0,0.0,75,0.00,,---,0.00,VWS V14.01,2013-07-14 21:31:00,
2013-07-14 17:35:00,84.9,76.5,30.14,NW,312,0.0,0.0,76,0.00,,---,0.00,VWS V14.01,2013-07-14 21:35:00,
2013-07-14 17:36:00,85.0,77.4,30.15,NW,312,0.0,1.0,78,0.00,,---,0.00,VWS V14.01,2013-07-14 21:36:00,
2013-07-14 17:40:00,85.0,77.4,30.14,NW,312,0.0,1.0,78,0.00,,---,0.00,VWS V14.01,2013-07-14 21:40:00,
2013-07-14 17:41:00,84.9,76.5,30.15,NW,312,0.0,1.0,76,0.00,,---,0.00,VWS V14.01,2013-07-14 21:41:00,
2013-07-14 17:45:00,84.9,76.1,30.15,NW,312,0.0,1.0,75,0.00,,---,0.00,VWS V14.01,2013-07-14 21:45:00,
2013-07-14 17:46:00,84.7,75.5,30.15,NW,312,0.0,0.0,74,0.00,,---,0.00,VWS V14.01,2013-07-14 21:46:00,
2013-07-14 17:50:00,84.7,75.5,30.15,NW,312,0.0,0.0,74,0.00,,---,0.00,VWS V14.01,2013-07-14 21:50:00,
2013-07-14 17:52:00,84.4,76.0,30.15,NW,312,0.0,0.0,76,0.00,,---,0.00,VWS V14.01,2013-07-14 21:52:00,
2013-07-14 17:55:00,84.3,75.9,30.15,NW,312,0.0,0.0,76,0.00,,---,0.00,VWS V14.01,2013-07-14 21:55:00,
2013-07-14 17:57:00,84.0,76.0,30.15,NW,312,0.0,0.0,77,0.00,,---,0.00,VWS V14.01,2013-07-14 21:57:00,
2013-07-14 18:00:00,83.9,75.9,30.15,NW,312,0.0,0.0,77,0.00,,---,0.00,VWS V14.01,2013-07-14 22:00:00,
2013-07-14 18:02:00,83.8,75.8,30.15,NW,312,0.0,0.0,77,0.00,,---,0.00,VWS V14.01,2013-07-14 22:02:00,
2013-07-14 18:05:00,83.8,76.2,30.15,NW,312,0.0,0.0,78,0.00,,---,0.00,VWS V14.01,2013-07-14 22:05:00,
2013-07-14 18:07:00,83.6,76.4,30.14,NW,312,0.0,1.0,79,0.00,,---,0.00,VWS V14.01,2013-07-14 22:07:00,
2013-07-14 18:10:00,83.6,76.8,30.14,NW,312,0.0,1.0,80,0.00,,---,0.00,VWS V14.01,2013-07-14 22:10:00,
2013-07-14 18:12:00,83.5,77.1,30.14,NW,312,0.0,0.0,81,0.00,,---,0.00,VWS V14.01,2013-07-14 22:12:00,
2013-07-14 18:15:00,83.4,77.3,30.14,NW,312,0.0,1.0,82,0.00,,---,0.00,VWS V14.01,2013-07-14 22:15:00,
2013-07-14 18:17:00,83.2,76.4,30.14,NW,312,0.0,2.0,80,0.00,,---,0.00,VWS V14.01,2013-07-14 22:17:00,
2013-07-14 18:20:00,83.2,76.4,30.14,NW,312,0.0,2.0,80,0.00,,---,0.00,VWS V14.01,2013-07-14 22:20:00,
2013-07-14 18:22:00,83.1,76.7,30.15,NW,312,0.0,0.0,81,0.00,,---,0.00,VWS V14.01,2013-07-14 22:22:00,
2013-07-14 18:25:00,83.0,76.6,30.15,NW,312,0.0,0.0,81,0.00,,---,0.00,VWS V14.01,2013-07-14 22:25:00,
2013-07-14 18:27:00,83.0,76.6,30.14,NW,312,0.0,0.0,81,0.00,,---,0.00,VWS V14.01,2013-07-14 22:27:00,
2013-07-14 18:30:00,83.0,76.6,30.14,NW,312,0.0,0.0,81,0.00,,---,0.00,VWS V14.01,2013-07-14 22:30:00,
2013-07-14 18:32:00,82.9,76.8,30.14,NW,312,0.0,0.0,82,0.00,,---,0.00,VWS V14.01,2013-07-14 22:32:00,
2013-07-14 18:35:00,82.9,76.8,30.14,NW,312,0.0,0.0,82,0.00,,---,0.00,VWS V14.01,2013-07-14 22:35:00,
2013-07-14 18:37:00,82.8,77.1,30.15,NW,312,0.0,3.0,83,0.00,,---,0.00,VWS V14.01,2013-07-14 22:37:00,
2013-07-14 18:40:00,82.7,77.0,30.15,NW,312,0.0,3.0,83,0.00,,---,0.00,VWS V14.01,2013-07-14 22:40:00,
2013-07-14 18:42:00,82.6,76.9,30.15,ESE,110,0.0,3.0,83,0.00,,---,0.00,VWS V14.01,2013-07-14 22:42:00,
2013-07-14 18:45:00,82.5,76.8,30.15,ESE,110,1.0,3.0,83,0.00,,---,0.00,VWS V14.01,2013-07-14 22:45:00,
2013-07-14 18:47:00,82.3,76.3,30.14,ESE,110,0.0,2.0,82,0.00,,---,0.00,VWS V14.01,2013-07-14 22:47:00,
2013-07-14 18:50:00,82.3,76.3,30.14,ESE,110,0.0,2.0,82,0.00,,---,0.00,VWS V14.01,2013-07-14 22:50:00,
2013-07-14 18:52:00,82.1,76.4,30.15,ESE,110,0.0,2.0,83,0.00,,---,0.00,VWS V14.01,2013-07-14 22:52:00,
2013-07-14 18:55:00,82.1,76.4,30.15,ESE,110,0.0,2.0,83,0.00,,---,0.00,VWS V14.01,2013-07-14 22:55:00,
2013-07-14 18:57:00,82.0,76.3,30.15,ESE,119,0.0,2.0,83,0.00,,---,0.00,VWS V14.01,2013-07-14 22:57:00,
2013-07-14 19:00:00,82.0,76.3,30.15,ESE,119,0.0,2.0,83,0.00,,---,0.00,VWS V14.01,2013-07-14 23:00:00,
2013-07-14 19:02:00,81.8,76.5,30.15,ESE,119,0.0,3.0,84,0.00,,---,0.00,VWS V14.01,2013-07-14 23:02:00,
2013-07-14 19:05:00,81.8,76.1,30.15,ESE,119,0.0,3.0,83,0.00,,---,0.00,VWS V14.01,2013-07-14 23:05:00,
2013-07-14 19:07:00,81.7,76.0,30.14,ESE,119,0.0,1.0,83,0.00,,---,0.00,VWS V14.01,2013-07-14 23:07:00,
2013-07-14 19:10:00,81.7,76.0,30.14,ESE,119,0.0,1.0,83,0.00,,---,0.00,VWS V14.01,2013-07-14 23:10:00,
2013-07-14 19:12:00,81.6,76.3,30.15,ESE,122,0.0,4.0,84,0.00,,---,0.00,VWS V14.01,2013-07-14 23:12:00,
2013-07-14 19:15:00,81.6,76.3,30.15,ESE,122,0.0,4.0,84,0.00,,---,0.00,VWS V14.01,2013-07-14 23:15:00,
2013-07-14 19:17:00,81.5,76.2,30.15,ESE,122,2.0,2.0,84,0.00,,---,0.00,VWS V14.01,2013-07-14 23:17:00,
2013-07-14 19:20:00,81.5,76.2,30.15,ESE,122,2.0,2.0,84,0.00,,---,0.00,VWS V14.01,2013-07-14 23:20:00,
2013-07-14 19:22:00,81.5,76.2,30.14,ESE,122,0.0,2.0,84,0.00,,---,0.00,VWS V14.01,2013-07-14 23:22:00,
2013-07-14 19:25:00,81.5,76.2,30.14,ESE,122,0.0,2.0,84,0.00,,---,0.00,VWS V14.01,2013-07-14 23:25:00,
2013-07-14 19:27:00,81.4,76.1,30.15,ESE,122,0.0,0.0,84,0.00,,---,0.00,VWS V14.01,2013-07-14 23:27:00,
2013-07-14 19:30:00,81.4,76.1,30.15,ESE,122,0.0,0.0,84,0.00,,---,0.00,VWS V14.01,2013-07-14 23:30:00,
2013-07-14 19:32:00,81.3,76.0,30.14,ESE,122,0.0,0.0,84,0.00,,---,0.00,VWS V14.01,2013-07-14 23:32:00,
2013-07-14 19:35:00,81.3,76.0,30.14,ESE,122,0.0,0.0,84,0.00,,---,0.00,VWS V14.01,2013-07-14 23:35:00,
2013-07-14 19:38:00,81.1,75.8,30.14,ESE,122,0.0,0.0,84,0.00,,---,0.00,VWS V14.01,2013-07-14 23:38:00,
2013-07-14 19:40:00,81.1,75.8,30.14,ESE,122,0.0,0.0,84,0.00,,---,0.00,VWS V14.01,2013-07-14 23:40:00,
2013-07-14 19:43:00,81.0,75.7,30.15,ESE,122,0.0,0.0,84,0.00,,---,0.00,VWS V14.01,2013-07-14 23:43:00,
2013-07-14 19:45:00,81.0,75.7,30.14,ESE,122,0.0,0.0,84,0.00,,---,0.00,VWS V14.01,2013-07-14 23:45:00,
2013-07-14 19:48:00,80.8,75.5,30.15,ESE,122,0.0,0.0,84,0.00,,---,0.00,VWS V14.01,2013-07-14 23:48:00,
2013-07-14 19:50:00,80.8,75.5,30.14,ESE,122,0.0,1.0,84,0.00,,---,0.00,VWS V14.01,2013-07-14 23:50:00,
2013-07-14 19:53:00,80.7,75.8,30.15,ESE,122,0.0,0.0,85,0.00,,---,0.00,VWS V14.01,2013-07-14 23:53:00,
2013-07-14 19:55:00,80.7,75.8,30.15,ESE,122,0.0,0.0,85,0.00,,---,0.00,VWS V14.01,2013-07-14 23:55:00,
2013-07-14 19:58:00,80.5,75.6,30.15,ESE,122,0.0,0.0,85,0.00,,---,0.00,VWS V14.01,2013-07-14 23:58:00,
2013-07-14 20:00:00,80.5,75.6,30.15,ESE,122,0.0,0.0,85,0.00,,---,0.00,VWS V14.01,2013-07-15 00:00:00,
2013-07-14 20:03:00,80.2,75.3,30.15,ESE,122,0.0,0.0,85,0.00,,---,0.00,VWS V14.01,2013-07-15 00:03:00,
2013-07-14 20:05:00,80.2,75.3,30.15,ESE,122,0.0,0.0,85,0.00,,---,0.00,VWS V14.01,2013-07-15 00:05:00,
2013-07-14 20:08:00,80.0,75.1,30.15,ESE,122,0.0,0.0,85,0.00,,---,0.00,VWS V14.01,2013-07-15 00:08:00,
2013-07-14 20:10:00,80.0,75.1,30.15,ESE,122,0.0,0.0,85,0.00,,---,0.00,VWS V14.01,2013-07-15 00:10:00,
2013-07-14 20:13:00,79.8,74.9,30.15,ESE,122,0.0,0.0,85,0.00,,---,0.00,VWS V14.01,2013-07-15 00:13:00,
2013-07-14 20:14:00,79.7,74.8,30.15,ESE,122,0.0,0.0,85,0.00,,---,0.00,VWS V14.01,2013-07-15 00:14:00,
2013-07-14 20:15:00,79.8,74.9,30.15,ESE,122,0.0,0.0,85,0.00,,---,0.00,VWS V14.01,2013-07-15 00:15:00,
2013-07-14 20:19:00,79.4,74.8,30.15,ESE,122,0.0,0.0,86,0.00,,---,0.00,VWS V14.01,2013-07-15 00:19:00,
2013-07-14 20:20:00,79.6,75.1,30.15,ESE,122,0.0,0.0,86,0.00,,---,0.00,VWS V14.01,2013-07-15 00:20:00,
2013-07-14 20:25:00,79.2,74.7,30.15,ESE,122,0.0,0.0,86,0.00,,---,0.00,VWS V14.01,2013-07-15 00:25:00,
2013-07-14 20:30:00,78.8,74.3,30.15,ESE,122,0.0,0.0,86,0.00,,---,0.00,VWS V14.01,2013-07-15 00:30:00,
2013-07-14 20:35:00,78.7,74.5,30.15,ESE,122,0.0,0.0,87,0.00,,---,0.00,VWS V14.01,2013-07-15 00:35:00,
2013-07-14 20:40:00,78.4,74.2,30.15,ESE,122,0.0,0.0,87,0.00,,---,0.00,VWS V14.01,2013-07-15 00:40:00,
2013-07-14 20:45:00,78.2,74.0,30.15,ESE,122,0.0,0.0,87,0.00,,---,0.00,VWS V14.01,2013-07-15 00:45:00,
2013-07-14 20:50:00,78.0,74.2,30.15,ESE,122,0.0,0.0,88,0.00,,---,0.00,VWS V14.01,2013-07-15 00:50:00,
2013-07-14 20:55:00,77.8,74.0,30.15,ESE,122,0.0,0.0,88,0.00,,---,0.00,VWS V14.01,2013-07-15 00:55:00,
2013-07-14 21:00:00,77.5,73.7,30.15,ESE,122,0.0,0.0,88,0.00,,---,0.00,VWS V14.01,2013-07-15 01:00:00,
2013-07-14 21:05:00,77.3,73.8,30.15,ESE,122,0.0,0.0,89,0.00,,---,0.00,VWS V14.01,2013-07-15 01:05:00,
2013-07-14 21:10:00,77.0,73.5,30.15,ESE,122,0.0,0.0,89,0.00,,---,0.00,VWS V14.01,2013-07-15 01:10:00,
2013-07-14 21:15:00,76.8,73.3,30.15,ESE,122,0.0,0.0,89,0.00,,---,0.00,VWS V14.01,2013-07-15 01:15:00,
2013-07-14 21:20:00,76.6,73.4,30.16,ESE,122,0.0,0.0,90,0.00,,---,0.00,VWS V14.01,2013-07-15 01:20:00,
2013-07-14 21:25:00,76.3,73.2,30.16,ESE,122,0.0,0.0,90,0.00,,---,0.00,VWS V14.01,2013-07-15 01:25:00,
2013-07-14 21:30:00,76.0,73.2,30.16,ESE,122,0.0,0.0,91,0.00,,---,0.00,VWS V14.01,2013-07-15 01:30:00,
2013-07-14 21:35:00,75.9,73.1,30.16,ESE,122,0.0,0.0,91,0.00,,---,0.00,VWS V14.01,2013-07-15 01:35:00,
2013-07-14 21:40:00,75.7,72.9,30.16,ESE,122,0.0,0.0,91,0.00,,---,0.00,VWS V14.01,2013-07-15 01:40:00,
2013-07-14 21:45:00,75.6,73.1,30.16,ESE,122,0.0,0.0,92,0.00,,---,0.00,VWS V14.01,2013-07-15 01:45:00,
2013-07-14 21:50:00,75.4,72.9,30.16,ESE,122,0.0,0.0,92,0.00,,---,0.00,VWS V14.01,2013-07-15 01:50:00,
2013-07-14 21:55:00,75.2,72.7,30.16,ESE,122,0.0,0.0,92,0.00,,---,0.00,VWS V14.01,2013-07-15 01:55:00,
2013-07-14 22:00:00,75.0,72.8,30.16,ESE,122,0.0,0.0,93,0.00,,---,0.00,VWS V14.01,2013-07-15 02:00:00,
2013-07-14 22:05:00,74.9,72.7,30.16,ESE,122,0.0,0.0,93,0.00,,---,0.00,VWS V14.01,2013-07-15 02:05:00,
2013-07-14 22:06:00,74.8,72.6,30.15,ESE,122,0.0,0.0,93,0.00,,---,0.00,VWS V14.01,2013-07-15 02:06:00,
2013-07-14 22:10:00,74.8,72.6,30.15,ESE,122,0.0,0.0,93,0.00,,---,0.00,VWS V14.01,2013-07-15 02:10:00,
2013-07-14 22:11:00,74.6,72.4,30.15,ESE,122,0.0,0.0,93,0.00,,---,0.00,VWS V14.01,2013-07-15 02:11:00,
2013-07-14 22:15:00,74.6,72.4,30.15,ESE,122,0.0,0.0,93,0.00,,---,0.00,VWS V14.01,2013-07-15 02:15:00,
2013-07-14 22:16:00,74.4,72.2,30.15,ESE,122,0.0,0.0,93,0.00,,---,0.00,VWS V14.01,2013-07-15 02:16:00,
2013-07-14 22:20:00,74.4,72.2,30.15,ESE,122,0.0,0.0,93,0.00,,---,0.00,VWS V14.01,2013-07-15 02:20:00,
2013-07-14 22:21:00,74.3,72.2,30.16,ESE,122,0.0,0.0,93,0.00,,---,0.00,VWS V14.01,2013-07-15 02:21:00,
2013-07-14 22:25:00,74.2,72.1,30.15,ESE,122,0.0,0.0,93,0.00,,---,0.00,VWS V14.01,2013-07-15 02:25:00,
2013-07-14 22:26:00,74.2,72.1,30.16,ESE,122,0.0,0.0,93,0.00,,---,0.00,VWS V14.01,2013-07-15 02:26:00,
2013-07-14 22:30:00,74.2,72.1,30.16,ESE,122,0.0,0.0,93,0.00,,---,0.00,VWS V14.01,2013-07-15 02:30:00,
2013-07-14 22:31:00,74.1,72.3,30.15,ESE,122,0.0,0.0,94,0.00,,---,0.00,VWS V14.01,2013-07-15 02:31:00,
2013-07-14 22:35:00,74.0,72.2,30.16,ESE,122,0.0,0.0,94,0.00,,---,0.00,VWS V14.01,2013-07-15 02:35:00,
2013-07-14 22:36:00,73.9,72.1,30.15,ESE,122,0.0,0.0,94,0.00,,---,0.00,VWS V14.01,2013-07-15 02:36:00,
2013-07-14 22:40:00,73.9,72.1,30.15,ESE,122,0.0,0.0,94,0.00,,---,0.00,VWS V14.01,2013-07-15 02:40:00,
2013-07-14 22:41:00,73.8,72.0,30.15,ESE,122,0.0,0.0,94,0.00,,---,0.00,VWS V14.01,2013-07-15 02:41:00,
2013-07-14 22:45:00,73.8,72.0,30.15,ESE,122,0.0,0.0,94,0.00,,---,0.00,VWS V14.01,2013-07-15 02:45:00,
2013-07-14 22:46:00,73.7,71.9,30.15,ESE,122,0.0,0.0,94,0.00,,---,0.00,VWS V14.01,2013-07-15 02:46:00,
2013-07-14 22:50:00,73.7,71.9,30.15,ESE,122,0.0,0.0,94,0.00,,---,0.00,VWS V14.01,2013-07-15 02:50:00,
2013-07-14 22:51:00,73.6,71.8,30.15,ESE,122,0.0,0.0,94,0.00,,---,0.00,VWS V14.01,2013-07-15 02:51:00,
2013-07-14 22:55:00,73.6,71.8,30.15,ESE,122,0.0,0.0,94,0.00,,---,0.00,VWS V14.01,2013-07-15 02:55:00,
2013-07-14 22:56:00,73.5,72.0,30.15,ESE,122,0.0,0.0,95,0.00,,---,0.00,VWS V14.01,2013-07-15 02:56:00,
2013-07-14 23:00:00,73.5,72.0,30.15,ESE,122,0.0,0.0,95,0.00,,---,0.00,VWS V14.01,2013-07-15 03:00:00,
2013-07-14 23:01:00,73.5,72.0,30.15,ESE,122,0.0,0.0,95,0.00,,---,0.00,VWS V14.01,2013-07-15 03:01:00,
2013-07-14 23:05:00,73.5,71.7,30.15,ESE,122,0.0,0.0,94,0.00,,---,0.00,VWS V14.01,2013-07-15 03:05:00,
2013-07-14 23:06:00,73.4,71.9,30.15,ESE,122,0.0,0.0,95,0.00,,---,0.00,VWS V14.01,2013-07-15 03:06:00,
2013-07-14 23:10:00,73.4,71.9,30.15,ESE,122,0.0,0.0,95,0.00,,---,0.00,VWS V14.01,2013-07-15 03:10:00,
2013-07-14 23:11:00,73.4,71.9,30.15,ESE,122,0.0,0.0,95,0.00,,---,0.00,VWS V14.01,2013-07-15 03:11:00,
2013-07-14 23:15:00,73.4,71.9,30.15,ESE,122,0.0,0.0,95,0.00,,---,0.00,VWS V14.01,2013-07-15 03:15:00,
2013-07-14 23:16:00,73.3,71.8,30.15,ESE,122,0.0,0.0,95,0.00,,---,0.00,VWS V14.01,2013-07-15 03:16:00,
2013-07-14 23:20:00,73.3,71.8,30.15,ESE,122,0.0,0.0,95,0.00,,---,0.00,VWS V14.01,2013-07-15 03:20:00,
2013-07-14 23:21:00,73.3,71.8,30.15,ESE,122,0.0,0.0,95,0.00,,---,0.00,VWS V14.01,2013-07-15 03:21:00,
2013-07-14 23:25:00,73.2,71.7,30.15,ESE,122,0.0,0.0,95,0.00,,---,0.00,VWS V14.01,2013-07-15 03:25:00,
2013-07-14 23:26:00,73.2,71.7,30.15,ESE,122,0.0,0.0,95,0.00,,---,0.00,VWS V14.01,2013-07-15 03:26:00,
2013-07-14 23:30:00,73.2,71.7,30.15,ESE,122,0.0,0.0,95,0.00,,---,0.00,VWS V14.01,2013-07-15 03:30:00,
2013-07-14 23:31:00,73.1,71.6,30.15,ESE,122,0.0,0.0,95,0.00,,---,0.00,VWS V14.01,2013-07-15 03:31:00,
2013-07-14 23:35:00,73.1,71.6,30.15,ESE,122,0.0,0.0,95,0.00,,---,0.00,VWS V14.01,2013-07-15 03:35:00,
2013-07-14 23:36:00,73.0,71.5,30.15,ESE,122,0.0,0.0,95,0.00,,---,0.00,VWS V14.01,2013-07-15 03:36:00,
2013-07-14 23:40:00,73.0,71.5,30.15,ESE,122,0.0,0.0,95,0.00,,---,0.00,VWS V14.01,2013-07-15 03:40:00,
2013-07-14 23:41:00,73.0,71.5,30.15,ESE,122,0.0,0.0,95,0.00,,---,0.00,VWS V14.01,2013-07-15 03:41:00,
2013-07-14 23:45:00,73.0,71.5,30.15,ESE,122,0.0,0.0,95,0.00,,---,0.00,VWS V14.01,2013-07-15 03:45:00,
2013-07-14 23:47:00,72.9,71.4,30.15,ESE,122,0.0,0.0,95,0.00,,---,0.00,VWS V14.01,2013-07-15 03:47:00,
2013-07-14 23:50:00,72.9,71.4,30.15,ESE,122,0.0,0.0,95,0.00,,---,0.00,VWS V14.01,2013-07-15 03:50:00,
2013-07-14 23:52:00,72.9,71.4,30.15,ESE,122,0.0,0.0,95,0.00,,---,0.00,VWS V14.01,2013-07-15 03:52:00,
2013-07-14 23:55:00,72.9,71.4,30.15,ESE,122,0.0,0.0,95,0.00,,---,0.00,VWS V14.01,2013-07-15 03:55:00,
2013-07-14 23:57:00,72.8,71.3,30.15,ESE,122,0.0,0.0,95,0.00,,---,0.00,VWS V14.01,2013-07-15 03:57:00,